sensor_id;sensor_type;location;lat;lon;timestamp;temperature;humidity
59975;DHT22;62136;-35.664;-63.766;2024-01-30T15:02:55;26.70;42.10
59975;DHT22;62136;-35.664;-63.766;2024-01-30T15:05:22;26.70;42.40
59975;DHT22;62136;-35.664;-63.766;2024-01-30T15:07:49;26.80;43.40
59975;DHT22;62136;-35.664;-63.766;2024-01-30T15:10:16;27.10;44.50
59975;DHT22;62136;-35.664;-63.766;2024-01-30T15:12:44;27.30;45.00
59975;DHT22;62136;-35.664;-63.766;2024-01-30T15:15:11;27.50;44.90
59975;DHT22;62136;-35.664;-63.766;2024-01-30T15:17:38;27.70;44.90
59975;DHT22;62136;-35.664;-63.766;2024-01-30T15:20:06;27.90;43.70
59975;DHT22;62136;-35.664;-63.766;2024-01-30T15:22:33;28.10;42.60
59975;DHT22;62136;-35.664;-63.766;2024-01-30T15:25:00;28.30;42.80
59975;DHT22;62136;-35.664;-63.766;2024-01-30T15:27:27;28.50;42.60
59975;DHT22;62136;-35.664;-63.766;2024-01-30T15:29:54;28.70;42.70
59975;DHT22;62136;-35.664;-63.766;2024-01-30T15:32:21;28.80;42.80
59975;DHT22;62136;-35.664;-63.766;2024-01-30T15:34:48;28.90;42.70
59975;DHT22;62136;-35.664;-63.766;2024-01-30T15:37:15;29.10;43.10
59975;DHT22;62136;-35.664;-63.766;2024-01-30T15:39:42;29.20;43.20
59975;DHT22;62136;-35.664;-63.766;2024-01-30T15:42:09;29.30;42.90
59975;DHT22;62136;-35.664;-63.766;2024-01-30T15:44:36;29.40;43.10
59975;DHT22;62136;-35.664;-63.766;2024-01-30T15:47:03;29.50;43.20
59975;DHT22;62136;-35.664;-63.766;2024-01-30T15:49:30;29.50;43.00
59975;DHT22;62136;-35.664;-63.766;2024-01-30T15:51:57;29.60;43.00
59975;DHT22;62136;-35.664;-63.766;2024-01-30T15:54:24;29.70;43.00
59975;DHT22;62136;-35.664;-63.766;2024-01-30T15:56:51;29.80;43.00
59975;DHT22;62136;-35.664;-63.766;2024-01-30T15:59:18;29.80;42.90
59975;DHT22;62136;-35.664;-63.766;2024-01-30T16:01:45;29.90;43.00
59975;DHT22;62136;-35.664;-63.766;2024-01-30T16:04:17;30.00;43.20
59975;DHT22;62136;-35.664;-63.766;2024-01-30T16:06:46;30.00;43.00
59975;DHT22;62136;-35.664;-63.766;2024-01-30T16:09:13;30.10;43.10
59975;DHT22;62136;-35.664;-63.766;2024-01-30T16:11:41;30.10;43.00
59975;DHT22;62136;-35.664;-63.766;2024-01-30T16:14:08;30.20;43.60
59975;DHT22;62136;-35.664;-63.766;2024-01-30T16:16:36;30.20;42.90
59975;DHT22;62136;-35.664;-63.766;2024-01-30T16:19:03;30.30;42.90
59975;DHT22;62136;-35.664;-63.766;2024-01-30T16:21:30;30.30;43.10
59975;DHT22;62136;-35.664;-63.766;2024-01-30T16:23:57;30.30;42.90
59975;DHT22;62136;-35.664;-63.766;2024-01-30T16:26:24;30.40;42.80
59975;DHT22;62136;-35.664;-63.766;2024-01-30T16:28:51;30.40;42.90
59975;DHT22;62136;-35.664;-63.766;2024-01-30T16:31:18;30.40;42.90
59975;DHT22;62136;-35.664;-63.766;2024-01-30T16:33:49;30.50;43.00
59975;DHT22;62136;-35.664;-63.766;2024-01-30T16:36:16;30.50;42.80
59975;DHT22;62136;-35.664;-63.766;2024-01-30T16:38:43;30.50;42.90
59975;DHT22;62136;-35.664;-63.766;2024-01-30T16:41:11;30.60;42.90
59975;DHT22;62136;-35.664;-63.766;2024-01-30T16:43:38;30.60;43.00
59975;DHT22;62136;-35.664;-63.766;2024-01-30T16:46:05;30.70;42.90
59975;DHT22;62136;-35.664;-63.766;2024-01-30T16:48:32;30.70;43.30
59975;DHT22;62136;-35.664;-63.766;2024-01-30T16:50:59;30.70;43.30
59975;DHT22;62136;-35.664;-63.766;2024-01-30T16:53:27;30.70;43.30
59975;DHT22;62136;-35.664;-63.766;2024-01-30T16:55:54;30.80;43.10
59975;DHT22;62136;-35.664;-63.766;2024-01-30T16:58:21;30.80;43.10
59975;DHT22;62136;-35.664;-63.766;2024-01-30T17:00:48;30.80;43.00
59975;DHT22;62136;-35.664;-63.766;2024-01-30T17:03:15;30.80;43.10
59975;DHT22;62136;-35.664;-63.766;2024-01-30T17:05:42;30.80;43.20
59975;DHT22;62136;-35.664;-63.766;2024-01-30T17:08:09;30.90;43.20
59975;DHT22;62136;-35.664;-63.766;2024-01-30T17:10:36;30.90;43.70
59975;DHT22;62136;-35.664;-63.766;2024-01-30T17:13:03;30.90;43.30
59975;DHT22;62136;-35.664;-63.766;2024-01-30T17:15:30;30.90;43.00
59975;DHT22;62136;-35.664;-63.766;2024-01-30T17:17:57;31.00;43.20
59975;DHT22;62136;-35.664;-63.766;2024-01-30T17:20:24;31.00;43.10
59975;DHT22;62136;-35.664;-63.766;2024-01-30T17:22:51;31.00;43.00
59975;DHT22;62136;-35.664;-63.766;2024-01-30T17:25:18;31.00;43.00
59975;DHT22;62136;-35.664;-63.766;2024-01-30T17:27:45;31.10;43.30
59975;DHT22;62136;-35.664;-63.766;2024-01-30T17:30:13;31.10;43.20
59975;DHT22;62136;-35.664;-63.766;2024-01-30T17:32:42;31.10;43.20
59975;DHT22;62136;-35.664;-63.766;2024-01-30T17:35:09;31.20;43.30
59975;DHT22;62136;-35.664;-63.766;2024-01-30T17:37:38;31.20;43.40
59975;DHT22;62136;-35.664;-63.766;2024-01-30T17:40:06;31.20;43.30
59975;DHT22;62136;-35.664;-63.766;2024-01-30T17:42:34;31.20;43.40
59975;DHT22;62136;-35.664;-63.766;2024-01-30T17:45:02;31.20;43.30
59975;DHT22;62136;-35.664;-63.766;2024-01-30T17:47:29;31.30;43.40
59975;DHT22;62136;-35.664;-63.766;2024-01-30T17:49:57;31.30;43.50
59975;DHT22;62136;-35.664;-63.766;2024-01-30T17:52:24;31.30;43.50
59975;DHT22;62136;-35.664;-63.766;2024-01-30T17:54:51;31.30;43.40
59975;DHT22;62136;-35.664;-63.766;2024-01-30T17:57:18;31.30;43.60
59975;DHT22;62136;-35.664;-63.766;2024-01-30T17:59:45;31.30;43.50
59975;DHT22;62136;-35.664;-63.766;2024-01-30T18:02:12;31.30;43.30
59975;DHT22;62136;-35.664;-63.766;2024-01-30T18:04:41;31.40;43.50
59975;DHT22;62136;-35.664;-63.766;2024-01-30T18:07:08;31.40;43.50
59975;DHT22;62136;-35.664;-63.766;2024-01-30T18:09:36;31.40;43.50
59975;DHT22;62136;-35.664;-63.766;2024-01-30T18:12:04;31.50;43.70
59975;DHT22;62136;-35.664;-63.766;2024-01-30T18:14:32;31.50;43.50
59975;DHT22;62136;-35.664;-63.766;2024-01-30T18:16:59;31.40;43.60
59975;DHT22;62136;-35.664;-63.766;2024-01-30T18:19:26;31.50;43.60
59975;DHT22;62136;-35.664;-63.766;2024-01-30T18:21:53;31.50;43.50
59975;DHT22;62136;-35.664;-63.766;2024-01-30T18:24:20;31.50;43.70
59975;DHT22;62136;-35.664;-63.766;2024-01-30T18:26:51;31.50;43.30
59975;DHT22;62136;-35.664;-63.766;2024-01-30T18:29:18;31.50;43.50
59975;DHT22;62136;-35.664;-63.766;2024-01-30T18:31:46;31.60;43.50
59975;DHT22;62136;-35.664;-63.766;2024-01-30T18:34:13;31.60;43.40
59975;DHT22;62136;-35.664;-63.766;2024-01-30T18:36:40;31.50;43.30
59975;DHT22;62136;-35.664;-63.766;2024-01-30T18:39:08;31.60;42.90
59975;DHT22;62136;-35.664;-63.766;2024-01-30T18:41:36;31.60;43.00
59975;DHT22;62136;-35.664;-63.766;2024-01-30T18:44:03;31.60;42.90
59975;DHT22;62136;-35.664;-63.766;2024-01-30T18:46:30;31.60;42.90
59975;DHT22;62136;-35.664;-63.766;2024-01-30T18:48:57;31.60;42.90
59975;DHT22;62136;-35.664;-63.766;2024-01-30T18:51:24;31.60;42.80
59975;DHT22;62136;-35.664;-63.766;2024-01-30T18:53:51;31.70;42.80
59975;DHT22;62136;-35.664;-63.766;2024-01-30T18:56:18;31.70;42.70
59975;DHT22;62136;-35.664;-63.766;2024-01-30T18:58:46;31.70;42.80
59975;DHT22;62136;-35.664;-63.766;2024-01-30T19:01:13;31.70;42.70
59975;DHT22;62136;-35.664;-63.766;2024-01-30T19:03:40;31.70;42.70
59975;DHT22;62136;-35.664;-63.766;2024-01-30T19:06:07;31.70;42.70
59975;DHT22;62136;-35.664;-63.766;2024-01-30T19:08:36;31.70;42.70
59975;DHT22;62136;-35.664;-63.766;2024-01-30T19:11:03;31.70;42.80
59975;DHT22;62136;-35.664;-63.766;2024-01-30T19:13:30;31.70;42.80
59975;DHT22;62136;-35.664;-63.766;2024-01-30T19:15:57;31.80;43.00
59975;DHT22;62136;-35.664;-63.766;2024-01-30T19:18:24;31.80;43.10
59975;DHT22;62136;-35.664;-63.766;2024-01-30T19:20:51;31.80;43.00
59975;DHT22;62136;-35.664;-63.766;2024-01-30T19:23:18;31.80;43.10
59975;DHT22;62136;-35.664;-63.766;2024-01-30T19:25:45;31.80;43.00
59975;DHT22;62136;-35.664;-63.766;2024-01-30T19:28:12;31.80;43.10
59975;DHT22;62136;-35.664;-63.766;2024-01-30T19:30:39;31.80;43.10
59975;DHT22;62136;-35.664;-63.766;2024-01-30T19:33:06;31.80;43.10
59975;DHT22;62136;-35.664;-63.766;2024-01-30T19:35:33;31.80;43.20
59975;DHT22;62136;-35.664;-63.766;2024-01-30T19:38:00;31.80;43.10
59975;DHT22;62136;-35.664;-63.766;2024-01-30T19:40:27;31.80;43.10
59975;DHT22;62136;-35.664;-63.766;2024-01-30T19:42:54;31.90;43.30
59975;DHT22;62136;-35.664;-63.766;2024-01-30T19:45:21;31.90;43.40
59975;DHT22;62136;-35.664;-63.766;2024-01-30T19:47:48;31.90;43.10
59975;DHT22;62136;-35.664;-63.766;2024-01-30T19:50:18;31.90;43.50
59975;DHT22;62136;-35.664;-63.766;2024-01-30T19:52:45;31.90;43.40
59975;DHT22;62136;-35.664;-63.766;2024-01-30T19:55:13;31.90;43.50
59975;DHT22;62136;-35.664;-63.766;2024-01-30T19:57:41;31.90;43.40
59975;DHT22;62136;-35.664;-63.766;2024-01-30T20:00:09;31.90;43.50
59975;DHT22;62136;-35.664;-63.766;2024-01-30T20:02:40;31.90;43.50
59975;DHT22;62136;-35.664;-63.766;2024-01-30T20:05:07;31.90;43.50
59975;DHT22;62136;-35.664;-63.766;2024-01-30T20:07:34;31.90;43.60
59975;DHT22;62136;-35.664;-63.766;2024-01-30T20:10:02;32.00;43.80
59975;DHT22;62136;-35.664;-63.766;2024-01-30T20:12:29;32.00;43.70
59975;DHT22;62136;-35.664;-63.766;2024-01-30T20:14:56;32.00;43.70
59975;DHT22;62136;-35.664;-63.766;2024-01-30T20:17:23;32.00;43.60
59975;DHT22;62136;-35.664;-63.766;2024-01-30T20:19:50;32.00;43.50
59975;DHT22;62136;-35.664;-63.766;2024-01-30T20:22:20;32.00;43.80
59975;DHT22;62136;-35.664;-63.766;2024-01-30T20:24:47;32.00;43.70
59975;DHT22;62136;-35.664;-63.766;2024-01-30T20:27:14;32.00;43.70
59975;DHT22;62136;-35.664;-63.766;2024-01-30T20:29:41;32.00;43.60
59975;DHT22;62136;-35.664;-63.766;2024-01-30T20:32:08;32.00;44.00
59975;DHT22;62136;-35.664;-63.766;2024-01-30T20:34:35;32.00;44.00
59975;DHT22;62136;-35.664;-63.766;2024-01-30T20:37:02;32.00;44.10
59975;DHT22;62136;-35.664;-63.766;2024-01-30T20:39:29;32.00;44.10
59975;DHT22;62136;-35.664;-63.766;2024-01-30T20:41:56;32.00;44.50
59975;DHT22;62136;-35.664;-63.766;2024-01-30T20:44:23;32.00;44.50
59975;DHT22;62136;-35.664;-63.766;2024-01-30T20:46:50;32.10;44.60
59975;DHT22;62136;-35.664;-63.766;2024-01-30T20:49:17;32.00;44.40
59975;DHT22;62136;-35.664;-63.766;2024-01-30T20:51:44;32.10;44.70
59975;DHT22;62136;-35.664;-63.766;2024-01-30T20:54:14;32.10;44.50
59975;DHT22;62136;-35.664;-63.766;2024-01-30T20:56:41;32.10;44.60
59975;DHT22;62136;-35.664;-63.766;2024-01-30T20:59:08;32.10;44.40
59975;DHT22;62136;-35.664;-63.766;2024-01-30T21:01:35;32.10;44.50
59975;DHT22;62136;-35.664;-63.766;2024-01-30T21:04:02;32.10;44.70
59975;DHT22;62136;-35.664;-63.766;2024-01-30T21:06:29;32.10;44.50
59975;DHT22;62136;-35.664;-63.766;2024-01-30T21:08:56;32.10;44.40
59975;DHT22;62136;-35.664;-63.766;2024-01-30T21:11:23;32.10;44.60
59975;DHT22;62136;-35.664;-63.766;2024-01-30T21:13:50;32.10;44.50
59975;DHT22;62136;-35.664;-63.766;2024-01-30T21:16:17;32.10;44.50
59975;DHT22;62136;-35.664;-63.766;2024-01-30T21:18:44;32.10;44.70
59975;DHT22;62136;-35.664;-63.766;2024-01-30T21:21:11;32.10;44.70
59975;DHT22;62136;-35.664;-63.766;2024-01-30T21:23:39;32.10;44.80
59975;DHT22;62136;-35.664;-63.766;2024-01-30T21:26:06;32.10;44.90
59975;DHT22;62136;-35.664;-63.766;2024-01-30T21:28:35;32.10;44.80
59975;DHT22;62136;-35.664;-63.766;2024-01-30T21:31:02;32.10;45.00
59975;DHT22;62136;-35.664;-63.766;2024-01-30T21:33:34;32.10;45.00
59975;DHT22;62136;-35.664;-63.766;2024-01-30T21:36:01;32.10;45.10
59975;DHT22;62136;-35.664;-63.766;2024-01-30T21:38:28;32.10;45.10
59975;DHT22;62136;-35.664;-63.766;2024-01-30T21:40:55;32.10;45.00
59975;DHT22;62136;-35.664;-63.766;2024-01-30T21:43:22;32.10;45.10
59975;DHT22;62136;-35.664;-63.766;2024-01-30T21:45:49;32.10;45.20
59975;DHT22;62136;-35.664;-63.766;2024-01-30T21:48:16;32.10;45.10
59975;DHT22;62136;-35.664;-63.766;2024-01-30T21:50:43;32.10;45.10
59975;DHT22;62136;-35.664;-63.766;2024-01-30T21:53:10;32.10;45.20
59975;DHT22;62136;-35.664;-63.766;2024-01-30T21:55:38;32.10;45.30
59975;DHT22;62136;-35.664;-63.766;2024-01-30T21:58:05;32.10;45.20
59975;DHT22;62136;-35.664;-63.766;2024-01-30T22:00:32;32.10;45.20
59975;DHT22;62136;-35.664;-63.766;2024-01-30T22:02:59;32.10;45.20
59975;DHT22;62136;-35.664;-63.766;2024-01-30T22:05:26;32.10;45.20
59975;DHT22;62136;-35.664;-63.766;2024-01-30T22:07:53;32.10;45.30
59975;DHT22;62136;-35.664;-63.766;2024-01-30T22:10:20;32.10;45.20
59975;DHT22;62136;-35.664;-63.766;2024-01-30T22:12:50;32.10;45.40
59975;DHT22;62136;-35.664;-63.766;2024-01-30T22:15:17;32.10;45.40
59975;DHT22;62136;-35.664;-63.766;2024-01-30T22:17:44;32.10;45.40
59975;DHT22;62136;-35.664;-63.766;2024-01-30T22:20:11;32.10;45.20
59975;DHT22;62136;-35.664;-63.766;2024-01-30T22:22:38;32.10;45.30
59975;DHT22;62136;-35.664;-63.766;2024-01-30T22:25:06;32.10;45.20
59975;DHT22;62136;-35.664;-63.766;2024-01-30T22:27:33;32.10;45.20
59975;DHT22;62136;-35.664;-63.766;2024-01-30T22:30:00;32.10;45.30
59975;DHT22;62136;-35.664;-63.766;2024-01-30T22:32:27;32.10;45.40
59975;DHT22;62136;-35.664;-63.766;2024-01-30T22:34:54;32.10;45.40
59975;DHT22;62136;-35.664;-63.766;2024-01-30T22:37:21;32.10;45.50
59975;DHT22;62136;-35.664;-63.766;2024-01-30T22:39:48;32.10;45.40
59975;DHT22;62136;-35.664;-63.766;2024-01-30T22:42:15;32.10;45.50
59975;DHT22;62136;-35.664;-63.766;2024-01-30T22:44:42;32.10;45.50
59975;DHT22;62136;-35.664;-63.766;2024-01-30T22:47:09;32.10;45.50
59975;DHT22;62136;-35.664;-63.766;2024-01-30T22:49:36;32.00;45.50
59975;DHT22;62136;-35.664;-63.766;2024-01-30T22:52:03;32.10;45.60
59975;DHT22;62136;-35.664;-63.766;2024-01-30T22:54:30;32.10;45.60
59975;DHT22;62136;-35.664;-63.766;2024-01-30T22:56:57;32.00;45.60
59975;DHT22;62136;-35.664;-63.766;2024-01-30T22:59:24;32.00;45.60
59975;DHT22;62136;-35.664;-63.766;2024-01-30T23:01:51;32.00;45.70
59975;DHT22;62136;-35.664;-63.766;2024-01-30T23:04:18;32.00;45.70
59975;DHT22;62136;-35.664;-63.766;2024-01-30T23:06:45;32.00;45.70
59975;DHT22;62136;-35.664;-63.766;2024-01-30T23:09:12;32.00;45.70
59975;DHT22;62136;-35.664;-63.766;2024-01-30T23:11:40;32.00;45.70
59975;DHT22;62136;-35.664;-63.766;2024-01-30T23:14:07;32.00;45.70
59975;DHT22;62136;-35.664;-63.766;2024-01-30T23:16:34;32.00;45.80
59975;DHT22;62136;-35.664;-63.766;2024-01-30T23:19:01;31.90;45.80
59975;DHT22;62136;-35.664;-63.766;2024-01-30T23:21:30;31.90;45.80
59975;DHT22;62136;-35.664;-63.766;2024-01-30T23:23:57;31.90;46.30
59975;DHT22;62136;-35.664;-63.766;2024-01-30T23:26:24;31.90;46.00
59975;DHT22;62136;-35.664;-63.766;2024-01-30T23:28:51;31.80;46.00
59975;DHT22;62136;-35.664;-63.766;2024-01-30T23:31:21;31.90;46.10
59975;DHT22;62136;-35.664;-63.766;2024-01-30T23:33:48;31.90;46.20
59975;DHT22;62136;-35.664;-63.766;2024-01-30T23:36:15;31.80;46.20
59975;DHT22;62136;-35.664;-63.766;2024-01-30T23:38:43;31.80;46.20
59975;DHT22;62136;-35.664;-63.766;2024-01-30T23:41:10;31.80;46.20
59975;DHT22;62136;-35.664;-63.766;2024-01-30T23:43:37;31.80;46.20
59975;DHT22;62136;-35.664;-63.766;2024-01-30T23:46:04;31.80;46.20
59975;DHT22;62136;-35.664;-63.766;2024-01-30T23:48:34;31.80;46.20
59975;DHT22;62136;-35.664;-63.766;2024-01-30T23:51:01;31.80;46.30
59975;DHT22;62136;-35.664;-63.766;2024-01-30T23:53:28;31.80;46.40
59975;DHT22;62136;-35.664;-63.766;2024-01-30T23:55:55;31.80;46.50
59975;DHT22;62136;-35.664;-63.766;2024-01-30T23:58:22;31.80;46.50
